Terminal Aerodrome Forecast
Issued by NWS

Home | Current Version | Previous Version | Text Only | Print | Product List | Glossary On
Versions: 1 2 3 4 5 6 7 8 9 10 11 12 13
000
FTUS44 KMAF 022320
TAFHOB
TAF
KHOB 022320Z 0300/0324 14012G20KT P6SM SKC
     FM030100 15010KT P6SM SCT200
     FM031900 14011G19KT P6SM SCT250=

USA.gov is the U.S. government's official web portal to all federal, state and local government web resources and services.